sensor_id;sensor_type;location;lat;lon;timestamp;pressure;altitude;pressure_sealevel;temperature;humidity
54453;BME280;40363;52.270;10.546;2023-04-20T00:02:23;77817.28;;;-147.06;99.77
54453;BME280;40363;52.270;10.546;2023-04-20T00:04:51;77817.28;;;-147.06;100.00
54453;BME280;40363;52.270;10.546;2023-04-20T00:07:17;77813.16;;;-147.06;100.00
54453;BME280;40363;52.270;10.546;2023-04-20T00:09:44;77817.28;;;-147.06;100.00
54453;BME280;40363;52.270;10.546;2023-04-20T00:12:11;77800.84;;;-147.06;100.00
54453;BME280;40363;52.270;10.546;2023-04-20T00:14:37;77819.34;;;-147.06;100.00
54453;BME280;40363;52.270;10.546;2023-04-20T00:17:04;77809.06;;;-147.06;100.00
54453;BME280;40363;52.270;10.546;2023-04-20T00:19:32;77796.72;;;-147.06;100.00
54453;BME280;40363;52.270;10.546;2023-04-20T00:21:58;77784.38;;;-147.06;100.00
54453;BME280;40363;52.270;10.546;2023-04-20T00:24:25;77784.38;;;-147.06;100.00
54453;BME280;40363;52.270;10.546;2023-04-20T00:26:52;77792.63;;;-147.06;100.00
54453;BME280;40363;52.270;10.546;2023-04-20T00:29:19;77792.63;;;-147.06;100.00
54453;BME280;40363;52.270;10.546;2023-04-20T00:31:45;77788.50;;;-147.06;100.00
54453;BME280;40363;52.270;10.546;2023-04-20T00:34:12;77774.09;;;-147.06;100.00
54453;BME280;40363;52.270;10.546;2023-04-20T00:36:41;77772.06;;;-147.06;100.00
54453;BME280;40363;52.270;10.546;2023-04-20T00:39:08;77767.94;;;-147.06;100.00
54453;BME280;40363;52.270;10.546;2023-04-20T00:41:35;77763.81;;;-147.06;100.00
54453;BME280;40363;52.270;10.546;2023-04-20T00:44:01;77745.31;;;-147.06;100.00
54453;BME280;40363;52.270;10.546;2023-04-20T00:46:28;77747.38;;;-147.06;100.00
54453;BME280;40363;52.270;10.546;2023-04-20T00:48:55;77757.66;;;-147.06;100.00
54453;BME280;40363;52.270;10.546;2023-04-20T00:51:22;77747.38;;;-147.06;100.00
54453;BME280;40363;52.270;10.546;2023-04-20T00:53:50;77743.25;;;-147.06;99.87
54453;BME280;40363;52.270;10.546;2023-04-20T00:56:17;77737.09;;;-147.06;100.00
54453;BME280;40363;52.270;10.546;2023-04-20T00:58:44;77735.03;;;-147.06;100.00
54453;BME280;40363;52.270;10.546;2023-04-20T01:01:12;77743.25;;;-147.06;100.00
54453;BME280;40363;52.270;10.546;2023-04-20T01:03:42;77728.88;;;-147.06;100.00
54453;BME280;40363;52.270;10.546;2023-04-20T01:06:08;77716.53;;;-147.06;100.00
54453;BME280;40363;52.270;10.546;2023-04-20T01:08:35;77720.66;;;-147.06;100.00
54453;BME280;40363;52.270;10.546;2023-04-20T01:11:03;77710.38;;;-147.06;100.00
54453;BME280;40363;52.270;10.546;2023-04-20T01:13:30;77712.44;;;-147.06;100.00
54453;BME280;40363;52.270;10.546;2023-04-20T01:15:57;77706.25;;;-147.06;100.00
54453;BME280;40363;52.270;10.546;2023-04-20T01:18:25;77704.19;;;-147.06;100.00
54453;BME280;40363;52.270;10.546;2023-04-20T01:20:52;77695.97;;;-147.06;100.00
54453;BME280;40363;52.270;10.546;2023-04-20T01:23:20;77702.16;;;-147.06;100.00
54453;BME280;40363;52.270;10.546;2023-04-20T01:25:46;77700.09;;;-147.06;100.00
54453;BME280;40363;52.270;10.546;2023-04-20T01:28:13;77704.19;;;-147.06;100.00
54453;BME280;40363;52.270;10.546;2023-04-20T01:30:40;77700.09;;;-147.06;100.00
54453;BME280;40363;52.270;10.546;2023-04-20T01:33:06;77700.09;;;-147.06;100.00
54453;BME280;40363;52.270;10.546;2023-04-20T01:35:33;77693.94;;;-147.06;100.00
54453;BME280;40363;52.270;10.546;2023-04-20T01:37:59;77687.75;;;-147.06;100.00
54453;BME280;40363;52.270;10.546;2023-04-20T01:40:27;77689.81;;;-147.06;100.00
54453;BME280;40363;52.270;10.546;2023-04-20T01:42:54;77675.41;;;-147.06;100.00
54453;BME280;40363;52.270;10.546;2023-04-20T01:45:21;77679.53;;;-147.06;100.00
54453;BME280;40363;52.270;10.546;2023-04-20T01:47:47;77683.66;;;-147.06;100.00
54453;BME280;40363;52.270;10.546;2023-04-20T01:50:14;77681.59;;;-147.06;100.00
54453;BME280;40363;52.270;10.546;2023-04-20T01:52:40;77685.69;;;-147.06;100.00
54453;BME280;40363;52.270;10.546;2023-04-20T01:55:07;77677.47;;;-147.06;100.00
54453;BME280;40363;52.270;10.546;2023-04-20T01:57:37;77673.38;;;-147.06;100.00
54453;BME280;40363;52.270;10.546;2023-04-20T02:00:05;77673.38;;;-147.06;100.00
54453;BME280;40363;52.270;10.546;2023-04-20T02:02:32;77669.25;;;-147.06;100.00
54453;BME280;40363;52.270;10.546;2023-04-20T02:04:59;77691.88;;;-147.06;100.00
54453;BME280;40363;52.270;10.546;2023-04-20T02:07:25;77685.69;;;-147.06;100.00
54453;BME280;40363;52.270;10.546;2023-04-20T02:09:52;77675.41;;;-147.06;100.00
54453;BME280;40363;52.270;10.546;2023-04-20T02:12:18;77669.25;;;-147.06;100.00
54453;BME280;40363;52.270;10.546;2023-04-20T02:14:46;77663.09;;;-147.06;100.00
54453;BME280;40363;52.270;10.546;2023-04-20T02:17:13;77663.09;;;-147.06;100.00
54453;BME280;40363;52.270;10.546;2023-04-20T02:19:40;77673.38;;;-147.06;100.00
54453;BME280;40363;52.270;10.546;2023-04-20T02:22:06;77665.13;;;-147.06;100.00
54453;BME280;40363;52.270;10.546;2023-04-20T02:24:33;77661.03;;;-147.06;100.00
54453;BME280;40363;52.270;10.546;2023-04-20T02:27:00;77669.25;;;-147.06;100.00
54453;BME280;40363;52.270;10.546;2023-04-20T02:29:26;77663.09;;;-147.06;100.00
54453;BME280;40363;52.270;10.546;2023-04-20T02:31:54;77656.91;;;-147.06;100.00
54453;BME280;40363;52.270;10.546;2023-04-20T02:34:21;77663.09;;;-147.06;100.00
54453;BME280;40363;52.270;10.546;2023-04-20T02:36:47;77665.13;;;-147.06;100.00
54453;BME280;40363;52.270;10.546;2023-04-20T02:39:14;77663.09;;;-147.06;100.00
54453;BME280;40363;52.270;10.546;2023-04-20T02:41:41;77654.84;;;-147.06;100.00
54453;BME280;40363;52.270;10.546;2023-04-20T02:44:07;77667.19;;;-147.06;100.00
54453;BME280;40363;52.270;10.546;2023-04-20T02:46:34;77669.25;;;-147.06;100.00
54453;BME280;40363;52.270;10.546;2023-04-20T02:49:02;77656.91;;;-147.06;100.00
54453;BME280;40363;52.270;10.546;2023-04-20T02:51:28;77656.91;;;-147.06;100.00
54453;BME280;40363;52.270;10.546;2023-04-20T02:53:55;77652.81;;;-147.06;100.00
54453;BME280;40363;52.270;10.546;2023-04-20T02:56:22;77646.63;;;-147.06;100.00
54453;BME280;40363;52.270;10.546;2023-04-20T02:58:48;77644.59;;;-147.06;100.00
54453;BME280;40363;52.270;10.546;2023-04-20T03:01:16;77648.69;;;-147.06;100.00
54453;BME280;40363;52.270;10.546;2023-04-20T03:03:43;77642.53;;;-147.06;100.00
54453;BME280;40363;52.270;10.546;2023-04-20T03:06:11;77650.75;;;-147.06;100.00
54453;BME280;40363;52.270;10.546;2023-04-20T03:08:38;77656.91;;;-147.06;100.00
54453;BME280;40363;52.270;10.546;2023-04-20T03:11:04;77648.69;;;-147.06;100.00
54453;BME280;40363;52.270;10.546;2023-04-20T03:13:31;77656.91;;;-147.06;100.00
54453;BME280;40363;52.270;10.546;2023-04-20T03:15:58;77661.03;;;-147.06;100.00
54453;BME280;40363;52.270;10.546;2023-04-20T03:18:24;77652.81;;;-147.06;100.00
54453;BME280;40363;52.270;10.546;2023-04-20T03:20:51;77650.75;;;-147.06;100.00
54453;BME280;40363;52.270;10.546;2023-04-20T03:23:19;77640.47;;;-147.06;100.00
54453;BME280;40363;52.270;10.546;2023-04-20T03:25:46;77661.03;;;-147.06;100.00
54453;BME280;40363;52.270;10.546;2023-04-20T03:28:13;77640.47;;;-147.06;100.00
54453;BME280;40363;52.270;10.546;2023-04-20T03:30:40;77640.47;;;-147.06;100.00
54453;BME280;40363;52.270;10.546;2023-04-20T03:33:07;77644.59;;;-147.06;100.00
54453;BME280;40363;52.270;10.546;2023-04-20T03:35:33;77640.47;;;-147.06;100.00
54453;BME280;40363;52.270;10.546;2023-04-20T03:38:03;77640.47;;;-147.06;100.00
54453;BME280;40363;52.270;10.546;2023-04-20T03:40:31;77642.53;;;-147.06;100.00
54453;BME280;40363;52.270;10.546;2023-04-20T03:42:58;77638.41;;;-147.06;100.00
54453;BME280;40363;52.270;10.546;2023-04-20T03:45:25;77642.53;;;-147.06;100.00
54453;BME280;40363;52.270;10.546;2023-04-20T03:47:51;77636.34;;;-147.06;100.00
54453;BME280;40363;52.270;10.546;2023-04-20T03:50:18;77636.34;;;-147.06;100.00
54453;BME280;40363;52.270;10.546;2023-04-20T03:52:44;77644.59;;;-147.06;100.00
54453;BME280;40363;52.270;10.546;2023-04-20T03:55:11;77638.41;;;-147.06;100.00
54453;BME280;40363;52.270;10.546;2023-04-20T03:57:39;77640.47;;;-147.06;100.00
54453;BME280;40363;52.270;10.546;2023-04-20T04:00:06;77640.47;;;-147.06;100.00
54453;BME280;40363;52.270;10.546;2023-04-20T04:02:35;77640.47;;;-147.06;100.00
54453;BME280;40363;52.270;10.546;2023-04-20T04:05:01;77646.63;;;-147.06;100.00
54453;BME280;40363;52.270;10.546;2023-04-20T04:07:28;77644.59;;;-147.06;100.00
54453;BME280;40363;52.270;10.546;2023-04-20T04:09:55;77640.47;;;-147.06;100.00
54453;BME280;40363;52.270;10.546;2023-04-20T04:12:21;77650.75;;;-147.06;100.00
54453;BME280;40363;52.270;10.546;2023-04-20T04:14:49;77644.59;;;-147.06;100.00
54453;BME280;40363;52.270;10.546;2023-04-20T04:17:16;77640.47;;;-147.06;100.00
54453;BME280;40363;52.270;10.546;2023-04-20T04:19:43;77638.41;;;-147.06;100.00
54453;BME280;40363;52.270;10.546;2023-04-20T04:22:09;77644.59;;;-147.06;100.00
54453;BME280;40363;52.270;10.546;2023-04-20T04:24:36;77638.41;;;-147.06;100.00
54453;BME280;40363;52.270;10.546;2023-04-20T04:27:03;77640.47;;;-147.06;100.00
54453;BME280;40363;52.270;10.546;2023-04-20T04:29:30;77644.59;;;-147.06;100.00
54453;BME280;40363;52.270;10.546;2023-04-20T04:32:01;77646.63;;;-147.06;100.00
54453;BME280;40363;52.270;10.546;2023-04-20T04:34:29;77646.63;;;-147.06;100.00
54453;BME280;40363;52.270;10.546;2023-04-20T04:36:56;77642.53;;;-147.06;100.00
54453;BME280;40363;52.270;10.546;2023-04-20T04:39:22;77636.34;;;-147.06;100.00
54453;BME280;40363;52.270;10.546;2023-04-20T04:41:49;77636.34;;;-147.06;100.00
54453;BME280;40363;52.270;10.546;2023-04-20T04:44:15;77650.75;;;-147.06;100.00
54453;BME280;40363;52.270;10.546;2023-04-20T04:46:42;77648.69;;;-147.06;100.00
54453;BME280;40363;52.270;10.546;2023-04-20T04:49:11;77661.03;;;-147.06;100.00
54453;BME280;40363;52.270;10.546;2023-04-20T04:51:37;77661.03;;;-147.06;100.00
54453;BME280;40363;52.270;10.546;2023-04-20T04:54:04;77663.09;;;-147.06;100.00
54453;BME280;40363;52.270;10.546;2023-04-20T04:56:31;77656.91;;;-147.06;100.00
54453;BME280;40363;52.270;10.546;2023-04-20T04:58:57;77652.81;;;-147.06;100.00
54453;BME280;40363;52.270;10.546;2023-04-20T05:01:24;77648.69;;;-147.06;100.00
54453;BME280;40363;52.270;10.546;2023-04-20T05:03:51;77656.91;;;-147.06;100.00
54453;BME280;40363;52.270;10.546;2023-04-20T05:06:18;77663.09;;;-147.06;100.00
54453;BME280;40363;52.270;10.546;2023-04-20T05:08:45;77665.13;;;-147.06;100.00
54453;BME280;40363;52.270;10.546;2023-04-20T05:11:12;77665.13;;;-147.06;100.00
54453;BME280;40363;52.270;10.546;2023-04-20T05:13:38;77661.03;;;-147.06;100.00
54453;BME280;40363;52.270;10.546;2023-04-20T05:16:06;77654.84;;;-147.06;100.00
54453;BME280;40363;52.270;10.546;2023-04-20T05:18:32;77683.66;;;-147.06;100.00
54453;BME280;40363;52.270;10.546;2023-04-20T05:20:59;77681.59;;;-147.06;100.00
54453;BME280;40363;52.270;10.546;2023-04-20T05:23:27;77665.13;;;-147.06;100.00
54453;BME280;40363;52.270;10.546;2023-04-20T05:25:54;77646.63;;;-147.06;100.00
54453;BME280;40363;52.270;10.546;2023-04-20T05:28:20;77636.34;;;-147.06;100.00
54453;BME280;40363;52.270;10.546;2023-04-20T05:30:47;77617.84;;;-147.06;100.00
54453;BME280;40363;52.270;10.546;2023-04-20T05:33:13;77636.34;;;-147.06;100.00
54453;BME280;40363;52.270;10.546;2023-04-20T05:35:40;77640.47;;;-147.06;100.00
54453;BME280;40363;52.270;10.546;2023-04-20T05:38:07;77630.19;;;-147.06;100.00
54453;BME280;40363;52.270;10.546;2023-04-20T05:40:35;77632.25;;;-147.06;99.83
54453;BME280;40363;52.270;10.546;2023-04-20T05:43:01;77640.47;;;-147.06;100.00
54453;BME280;40363;52.270;10.546;2023-04-20T05:45:28;77624.03;;;-147.06;99.79
54453;BME280;40363;52.270;10.546;2023-04-20T05:47:55;77619.91;;;-147.06;99.32
54453;BME280;40363;52.270;10.546;2023-04-20T05:50:23;77599.34;;;-147.06;98.12
54453;BME280;40363;52.270;10.546;2023-04-20T05:52:50;77603.47;;;-147.06;98.33
54453;BME280;40363;52.270;10.546;2023-04-20T05:55:17;77613.75;;;-147.06;98.86
54453;BME280;40363;52.270;10.546;2023-04-20T05:57:45;77630.19;;;-147.06;100.00
54453;BME280;40363;52.270;10.546;2023-04-20T06:00:14;77611.69;;;-147.06;100.00
54453;BME280;40363;52.270;10.546;2023-04-20T06:02:41;77582.91;;;-147.06;100.00
54453;BME280;40363;52.270;10.546;2023-04-20T06:05:09;77554.13;;;-147.06;99.19
54453;BME280;40363;52.270;10.546;2023-04-20T06:07:36;77562.34;;;-147.06;98.91
54453;BME280;40363;52.270;10.546;2023-04-20T06:10:04;77566.44;;;-147.06;98.57
54453;BME280;40363;52.270;10.546;2023-04-20T06:12:31;77576.72;;;-147.06;99.16
54453;BME280;40363;52.270;10.546;2023-04-20T06:14:59;77605.50;;;-147.06;99.77
54453;BME280;40363;52.270;10.546;2023-04-20T06:17:25;77584.97;;;-147.06;100.00
54453;BME280;40363;52.270;10.546;2023-04-20T06:19:52;77574.69;;;-147.06;99.83
54453;BME280;40363;52.270;10.546;2023-04-20T06:22:19;77560.28;;;-147.06;99.54
54453;BME280;40363;52.270;10.546;2023-04-20T06:24:46;77550.00;;;-147.06;100.00
54453;BME280;40363;52.270;10.546;2023-04-20T06:27:13;77533.56;;;-147.06;99.08
54453;BME280;40363;52.270;10.546;2023-04-20T06:29:40;77515.06;;;-147.06;97.24
54453;BME280;40363;52.270;10.546;2023-04-20T06:32:08;77523.28;;;-147.06;95.72
54453;BME280;40363;52.270;10.546;2023-04-20T06:34:35;77537.66;;;-147.06;95.52
54453;BME280;40363;52.270;10.546;2023-04-20T06:37:01;77591.13;;;-147.06;96.80
54453;BME280;40363;52.270;10.546;2023-04-20T06:39:28;77545.91;;;-147.06;97.14
54453;BME280;40363;52.270;10.546;2023-04-20T06:41:54;77525.34;;;-147.06;95.12
54453;BME280;40363;52.270;10.546;2023-04-20T06:44:21;77519.16;;;-147.06;93.33
54453;BME280;40363;52.270;10.546;2023-04-20T06:46:47;77500.66;;;-147.06;93.30
54453;BME280;40363;52.270;10.546;2023-04-20T06:49:15;77506.84;;;-147.06;92.96
54453;BME280;40363;52.270;10.546;2023-04-20T06:51:42;77504.78;;;-147.06;93.32
54453;BME280;40363;52.270;10.546;2023-04-20T06:54:09;77488.34;;;-147.06;91.00
54453;BME280;40363;52.270;10.546;2023-04-20T06:56:35;77500.66;;;-147.06;91.30
54453;BME280;40363;52.270;10.546;2023-04-20T06:59:02;77525.34;;;-147.06;93.79
54453;BME280;40363;52.270;10.546;2023-04-20T07:01:28;77543.84;;;-147.06;92.53
54453;BME280;40363;52.270;10.546;2023-04-20T07:03:55;77525.34;;;-147.06;92.91
54453;BME280;40363;52.270;10.546;2023-04-20T07:06:23;77515.06;;;-147.06;91.59
54453;BME280;40363;52.270;10.546;2023-04-20T07:08:51;77525.34;;;-147.06;90.76
54453;BME280;40363;52.270;10.546;2023-04-20T07:11:18;77488.34;;;-147.06;91.15
54453;BME280;40363;52.270;10.546;2023-04-20T07:13:45;77488.34;;;-147.06;89.68
54453;BME280;40363;52.270;10.546;2023-04-20T07:16:11;77428.72;;;-147.06;90.21
54453;BME280;40363;52.270;10.546;2023-04-20T07:18:38;77445.16;;;-147.06;90.13
54453;BME280;40363;52.270;10.546;2023-04-20T07:21:05;77399.94;;;-147.06;87.92
54453;BME280;40363;52.270;10.546;2023-04-20T07:23:33;77408.16;;;-147.06;86.58
54453;BME280;40363;52.270;10.546;2023-04-20T07:25:59;77395.81;;;-147.06;85.25
54453;BME280;40363;52.270;10.546;2023-04-20T07:28:26;77369.09;;;-147.06;84.24
54453;BME280;40363;52.270;10.546;2023-04-20T07:30:52;77369.09;;;-147.06;85.33
54453;BME280;40363;52.270;10.546;2023-04-20T07:33:19;77393.75;;;-147.06;84.86
54453;BME280;40363;52.270;10.546;2023-04-20T07:35:46;77414.31;;;-147.06;82.47
54453;BME280;40363;52.270;10.546;2023-04-20T07:38:12;77389.66;;;-147.06;82.42
54453;BME280;40363;52.270;10.546;2023-04-20T07:40:40;77424.59;;;-147.06;79.05
54453;BME280;40363;52.270;10.546;2023-04-20T07:43:07;77471.88;;;-147.06;80.17
54453;BME280;40363;52.270;10.546;2023-04-20T07:45:33;77430.75;;;-147.06;81.60
54453;BME280;40363;52.270;10.546;2023-04-20T07:48:00;77422.53;;;-147.06;82.28
54453;BME280;40363;52.270;10.546;2023-04-20T07:50:29;77397.88;;;-147.06;83.29
54453;BME280;40363;52.270;10.546;2023-04-20T07:52:56;77401.97;;;-147.06;82.54
54453;BME280;40363;52.270;10.546;2023-04-20T07:55:22;77410.22;;;-147.06;81.07
54453;BME280;40363;52.270;10.546;2023-04-20T07:57:50;77422.53;;;-147.06;80.43
54453;BME280;40363;52.270;10.546;2023-04-20T08:00:18;77459.53;;;-147.06;80.79
54453;BME280;40363;52.270;10.546;2023-04-20T08:02:45;77430.75;;;-147.06;80.33
54453;BME280;40363;52.270;10.546;2023-04-20T08:05:12;77420.50;;;-147.06;78.86
54453;BME280;40363;52.270;10.546;2023-04-20T08:07:38;77410.22;;;-147.06;81.14
54453;BME280;40363;52.270;10.546;2023-04-20T08:10:06;77406.09;;;-147.06;78.85
54453;BME280;40363;52.270;10.546;2023-04-20T08:12:33;77399.94;;;-147.06;80.35
54453;BME280;40363;52.270;10.546;2023-04-20T08:15:01;77385.53;;;-147.06;79.67
54453;BME280;40363;52.270;10.546;2023-04-20T08:17:30;77389.66;;;-147.06;80.89
54453;BME280;40363;52.270;10.546;2023-04-20T08:19:57;77404.03;;;-147.06;79.97
54453;BME280;40363;52.270;10.546;2023-04-20T08:22:23;77393.75;;;-147.06;75.92
54453;BME280;40363;52.270;10.546;2023-04-20T08:24:54;77352.66;;;-147.06;75.97
54453;BME280;40363;52.270;10.546;2023-04-20T08:27:20;77340.31;;;-147.06;75.86
54453;BME280;40363;52.270;10.546;2023-04-20T08:29:47;77293.03;;;-147.06;74.71
54453;BME280;40363;52.270;10.546;2023-04-20T08:32:15;77272.47;;;-147.06;71.15
54453;BME280;40363;52.270;10.546;2023-04-20T08:34:43;77221.06;;;-147.06;72.94
54453;BME280;40363;52.270;10.546;2023-04-20T08:37:09;77258.06;;;-147.06;70.10
54453;BME280;40363;52.270;10.546;2023-04-20T08:39:36;77247.78;;;-147.06;67.97
54453;BME280;40363;52.270;10.546;2023-04-20T08:42:03;77284.81;;;-147.06;68.22
54453;BME280;40363;52.270;10.546;2023-04-20T08:44:30;77362.91;;;-147.06;69.98
54453;BME280;40363;52.270;10.546;2023-04-20T08:46:58;77272.47;;;-147.06;68.37
54453;BME280;40363;52.270;10.546;2023-04-20T08:49:27;77262.19;;;-147.06;69.16
54453;BME280;40363;52.270;10.546;2023-04-20T08:51:53;77295.06;;;-147.06;68.47
54453;BME280;40363;52.270;10.546;2023-04-20T08:54:20;77356.75;;;-147.06;69.23
54453;BME280;40363;52.270;10.546;2023-04-20T08:56:47;77338.25;;;-147.06;68.74
54453;BME280;40363;52.270;10.546;2023-04-20T08:59:14;77256.03;;;-147.06;68.81
54453;BME280;40363;52.270;10.546;2023-04-20T09:01:41;77243.69;;;-147.06;68.71
54453;BME280;40363;52.270;10.546;2023-04-20T09:04:15;77206.69;;;-147.06;66.95
54453;BME280;40363;52.270;10.546;2023-04-20T09:06:50;77204.63;;;-147.06;67.01
54453;BME280;40363;52.270;10.546;2023-04-20T09:09:37;77214.91;;;-147.06;63.89
54453;BME280;40363;52.270;10.546;2023-04-20T09:12:06;77274.53;;;-147.06;64.52
54453;BME280;40363;52.270;10.546;2023-04-20T09:14:41;77231.34;;;-147.06;63.95
54453;BME280;40363;52.270;10.546;2023-04-20T09:17:08;77270.41;;;-147.06;64.26
54453;BME280;40363;52.270;10.546;2023-04-20T09:19:38;77280.69;;;-147.06;66.83
54453;BME280;40363;52.270;10.546;2023-04-20T09:22:06;77239.56;;;-147.06;66.04
54453;BME280;40363;52.270;10.546;2023-04-20T09:24:35;77182.00;;;-147.06;63.97
54453;BME280;40363;52.270;10.546;2023-04-20T09:27:13;77200.50;;;-147.06;64.30
54453;BME280;40363;52.270;10.546;2023-04-20T09:29:40;77044.28;;;-147.06;63.02
54453;BME280;40363;52.270;10.546;2023-04-20T09:32:07;77153.22;;;-147.06;62.32
54453;BME280;40363;52.270;10.546;2023-04-20T09:34:41;77266.31;;;-147.06;64.60
54453;BME280;40363;52.270;10.546;2023-04-20T09:37:09;77258.06;;;-147.06;66.24
54453;BME280;40363;52.270;10.546;2023-04-20T09:39:36;77175.84;;;-147.06;63.64
54453;BME280;40363;52.270;10.546;2023-04-20T09:42:10;77145.00;;;-147.06;63.57
54453;BME280;40363;52.270;10.546;2023-04-20T09:44:37;77071.00;;;-147.06;61.02
54453;BME280;40363;52.270;10.546;2023-04-20T09:47:05;77042.22;;;-147.06;59.95
54453;BME280;40363;52.270;10.546;2023-04-20T09:49:32;77175.84;;;-147.06;61.56
54453;BME280;40363;52.270;10.546;2023-04-20T09:52:00;77256.03;;;-147.06;63.89
54453;BME280;40363;52.270;10.546;2023-04-20T09:54:29;77200.50;;;-147.06;62.85
54453;BME280;40363;52.270;10.546;2023-04-20T09:56:58;77202.56;;;-147.06;62.71
54453;BME280;40363;52.270;10.546;2023-04-20T09:59:26;77036.06;;;-147.06;59.53
54453;BME280;40363;52.270;10.546;2023-04-20T10:01:53;76939.44;;;-147.06;56.80
54453;BME280;40363;52.270;10.546;2023-04-20T10:04:19;77040.16;;;-147.06;58.14
54453;BME280;40363;52.270;10.546;2023-04-20T10:06:53;77175.84;;;-147.06;60.27
54453;BME280;40363;52.270;10.546;2023-04-20T10:09:24;77122.41;;;-147.06;61.89
54453;BME280;40363;52.270;10.546;2023-04-20T10:12:03;77079.22;;;-147.06;61.21
54453;BME280;40363;52.270;10.546;2023-04-20T10:14:30;77077.19;;;-147.06;60.87
54453;BME280;40363;52.270;10.546;2023-04-20T10:17:00;77116.22;;;-147.06;62.47
54453;BME280;40363;52.270;10.546;2023-04-20T10:19:37;77147.06;;;-147.06;63.48
54453;BME280;40363;52.270;10.546;2023-04-20T10:22:04;77023.72;;;-147.06;58.91
54453;BME280;40363;52.270;10.546;2023-04-20T10:24:31;77052.50;;;-147.06;59.35
54453;BME280;40363;52.270;10.546;2023-04-20T10:26:59;77114.19;;;-147.06;60.91
54453;BME280;40363;52.270;10.546;2023-04-20T10:29:27;77130.63;;;-147.06;60.55
54453;BME280;40363;52.270;10.546;2023-04-20T10:31:55;77179.97;;;-147.06;61.47
54453;BME280;40363;52.270;10.546;2023-04-20T10:34:29;77175.84;;;-147.06;60.52
54453;BME280;40363;52.270;10.546;2023-04-20T10:37:06;77167.63;;;-147.06;62.49
54453;BME280;40363;52.270;10.546;2023-04-20T10:39:33;77157.34;;;-147.06;61.89
54453;BME280;40363;52.270;10.546;2023-04-20T10:42:03;77173.78;;;-147.06;61.81
54453;BME280;40363;52.270;10.546;2023-04-20T10:44:30;77112.13;;;-147.06;61.37
54453;BME280;40363;52.270;10.546;2023-04-20T10:46:58;77077.19;;;-147.06;60.75
54453;BME280;40363;52.270;10.546;2023-04-20T10:49:25;77052.50;;;-147.06;57.52
54453;BME280;40363;52.270;10.546;2023-04-20T10:51:53;77138.84;;;-147.06;58.91
54453;BME280;40363;52.270;10.546;2023-04-20T10:54:19;77079.22;;;-147.06;59.17
54453;BME280;40363;52.270;10.546;2023-04-20T10:56:47;76990.84;;;-147.06;57.63
54453;BME280;40363;52.270;10.546;2023-04-20T10:59:16;77023.72;;;-147.06;58.62
54453;BME280;40363;52.270;10.546;2023-04-20T11:01:43;76888.06;;;-147.06;57.89
54453;BME280;40363;52.270;10.546;2023-04-20T11:04:11;76898.34;;;-147.06;58.36
54453;BME280;40363;52.270;10.546;2023-04-20T11:06:38;76974.38;;;-147.06;58.00
54453;BME280;40363;52.270;10.546;2023-04-20T11:09:15;76955.88;;;-147.06;56.42
54453;BME280;40363;52.270;10.546;2023-04-20T11:11:43;77120.34;;;-147.06;59.22
54453;BME280;40363;52.270;10.546;2023-04-20T11:14:16;77068.94;;;-147.06;58.94
54453;BME280;40363;52.270;10.546;2023-04-20T11:16:50;76964.13;;;-147.06;57.89
54453;BME280;40363;52.270;10.546;2023-04-20T11:19:22;76908.63;;;-147.06;56.73
54453;BME280;40363;52.270;10.546;2023-04-20T11:21:49;76871.63;;;-147.06;56.50
54453;BME280;40363;52.270;10.546;2023-04-20T11:24:19;77062.78;;;-147.06;57.76
54453;BME280;40363;52.270;10.546;2023-04-20T11:26:58;76994.94;;;-147.06;58.13
54453;BME280;40363;52.270;10.546;2023-04-20T11:29:28;76892.16;;;-147.06;57.92
54453;BME280;40363;52.270;10.546;2023-04-20T11:31:55;76861.34;;;-147.06;55.59
54453;BME280;40363;52.270;10.546;2023-04-20T11:34:22;76916.84;;;-147.06;54.62
54453;BME280;40363;52.270;10.546;2023-04-20T11:36:50;76900.38;;;-147.06;54.65
54453;BME280;40363;52.270;10.546;2023-04-20T11:39:23;76902.44;;;-147.06;55.05
54453;BME280;40363;52.270;10.546;2023-04-20T11:41:50;76937.38;;;-147.06;55.02
54453;BME280;40363;52.270;10.546;2023-04-20T11:44:17;76888.06;;;-147.06;55.26
54453;BME280;40363;52.270;10.546;2023-04-20T11:46:49;76900.38;;;-147.06;55.82
54453;BME280;40363;52.270;10.546;2023-04-20T11:49:17;76904.50;;;-147.06;56.69
54453;BME280;40363;52.270;10.546;2023-04-20T11:51:45;76953.84;;;-147.06;57.53
54453;BME280;40363;52.270;10.546;2023-04-20T11:54:12;76896.28;;;-147.06;56.23
54453;BME280;40363;52.270;10.546;2023-04-20T11:56:39;76867.50;;;-147.06;55.06
54453;BME280;40363;52.270;10.546;2023-04-20T11:59:06;76830.50;;;-147.06;55.42
54453;BME280;40363;52.270;10.546;2023-04-20T12:01:33;76916.84;;;-147.06;54.88
54453;BME280;40363;52.270;10.546;2023-04-20T12:04:01;76896.28;;;-147.06;55.67
54453;BME280;40363;52.270;10.546;2023-04-20T12:06:29;76920.94;;;-147.06;57.39
54453;BME280;40363;52.270;10.546;2023-04-20T12:08:56;76904.50;;;-147.06;57.78
54453;BME280;40363;52.270;10.546;2023-04-20T12:11:23;76873.66;;;-147.06;57.94
54453;BME280;40363;52.270;10.546;2023-04-20T12:13:50;76879.84;;;-147.06;57.21
54453;BME280;40363;52.270;10.546;2023-04-20T12:16:17;76871.63;;;-147.06;57.84
54453;BME280;40363;52.270;10.546;2023-04-20T12:18:44;76900.38;;;-147.06;57.13
54453;BME280;40363;52.270;10.546;2023-04-20T12:21:12;76894.22;;;-147.06;56.32
54453;BME280;40363;52.270;10.546;2023-04-20T12:23:38;76896.28;;;-147.06;56.84
54453;BME280;40363;52.270;10.546;2023-04-20T12:26:05;76949.72;;;-147.06;57.62
54453;BME280;40363;52.270;10.546;2023-04-20T12:28:32;76920.94;;;-147.06;58.50